Titusville, Florida
Current Conditions -  °F | °C
As of 8:47 PM on Wednesday 22 Oct 2014 (Local Time) from KTIX Reporting Station
Clear Clear  
Wind Chill: 72°   Ceiling: Unl
Heat Index: 72°   Visibility: 7mi
Dew Point: 63°   Wind: 15mph
Humidity: 73%   Direction: 10°N
Pressure: 29.99"   Gusts: NA
Location:  28.61°N, 80.81°W
Report Text: KTIX 230047Z 010013KT 7SM SKC 22/17 A2999 RMK LAST
Loading
Personal Weather Stations






























Interactive Weather Map
Tropical Storm Tracking
New forecast layout! Learn more

10-Day Weather Forecast

Advertisements
Track Severe Weather on mobile